Latest Weather Observations for White Cliffs AWS

IDN60801

Issued at 2:02 pm EDT Tuesday 28 February 2017 (issued every 30 minutes, with the page automatically refreshed every 10 minutes)

About weather observations | Map of weather stations | Latest weather observations for NSW | Other Formats
Station Details ID: 046129 Name: WHITE CLIFFS AWS Lat: -30.85 Lon: 143.07 Height: 158.0 m
Data from the previous 72 hours. | See also: Recent months at White Cliffs AWS
Date/Time
EDT
Temp
°C
App
Temp
°C
Dew
Point
°C
Rel
Hum
%
Delta-T
°C
Wind Press
QNH
hPa
Press
MSL
hPa
Rain since
9am
mm
Dir  Spd
km/h
Gust
km/h
Spd
kts
Gust
kts
28/02:00pm 34.0 30.1 8.6 21 14.4 E 19 32 10 17 1016.5 1015.4 0.0
28/01:30pm 33.1 29.0 8.5 22 13.9 ESE 20 32 11 17 1016.8 1015.7 0.0
28/01:00pm 33.1 30.5 9.2 23 13.6 NE 13 24 7 13 1017.2 1016.1 0.0
28/12:30pm 32.5 29.1 9.3 24 13.2 NE 17 26 9 14 1017.6 1016.6 0.0
28/12:00pm 31.6 28.4 9.8 26 12.4 ENE 17 24 9 13 1018.0 1017.0 0.0
28/11:30am 31.2 28.0 10.0 27 12.1 ENE 17 26 9 14 1018.3 1017.3 0.0
28/11:00am 30.9 27.2 10.3 28 11.8 ENE 20 26 11 14 1018.4 1017.4 0.0
28/10:30am 30.1 25.8 10.6 30 11.2 ENE 24 32 13 17 1018.4 1017.4 0.0
28/10:00am 28.9 25.3 10.6 32 10.4 ENE 20 28 11 15 1018.3 1017.3 0.0
28/09:30am 28.2 24.2 10.4 33 10.1 ENE 22 28 12 15 1018.0 1017.0 0.0
28/09:00am 27.0 22.8 9.8 34 9.6 ENE 22 30 12 16 1017.9 1016.9 0.0
28/08:30am 25.6 21.8 9.0 35 9.1 E 19 24 10 13 1017.6 1016.6 0.0
28/08:00am 23.9 20.2 7.9 36 8.5 E 17 20 9 11 1017.4 1016.4 0.0
28/07:30am 22.8 18.9 7.0 36 8.2 E 17 20 9 11 1017.0 1015.9 0.0
28/07:00am 23.4 19.1 7.1 35 8.5 ESE 19 22 10 12 1016.5 1015.4 0.0
28/06:30am 23.7 19.8 6.9 34 8.8 ESE 17 20 9 11 1016.1 1015.1 0.0
28/06:00am 23.9 20.3 6.7 33 8.9 ESE 15 15 8 8 1015.7 1014.7 0.0
28/05:30am 24.6 21.0 6.8 32 9.3 ESE 15 19 8 10 1015.4 1014.4 0.0
28/05:00am 25.1 21.5 6.8 31 9.6 ESE 15 17 8 9 1015.3 1014.3 0.0
28/04:30am 24.9 21.3 6.6 31 9.6 ESE 15 17 8 9 1015.3 1014.3 0.0
28/04:00am 25.2 21.9 6.4 30 9.8 ESE 13 17 7 9 1015.4 1014.4 0.0
28/03:30am 24.8 21.3 5.6 29 9.9 ESE 13 15 7 8 1015.5 1014.5 0.0
28/03:00am 25.1 21.2 5.3 28 10.1 ESE 15 17 8 9 1015.7 1014.7 0.0
28/02:30am 24.8 21.1 4.5 27 10.2 ESE 13 15 7 8 1015.9 1014.9 0.0
28/02:00am 25.1 21.5 4.8 27 10.3 ESE 13 15 7 8 1016.0 1015.0 0.0
28/01:30am 26.2 22.6 5.2 26 10.8 ESE 13 15 7 8 1016.1 1015.1 0.0
28/01:00am 26.4 23.1 4.8 25 11.0 ESE 11 13 6 7 1016.2 1015.2 0.0
28/12:30am 26.2 22.9 4.6 25 11.0 E 11 13 6 7 1016.1 1015.1 0.0
28/12:00am 28.0 24.4 5.0 23 11.9 ESE 13 17 7 9 1016.1 1015.1 0.0
 
Date/Time
EDT
Temp
°C
App
Temp
°C
Dew
Point
°C
Rel
Hum
%
Delta-T
°C
Wind Press
QNH
hPa
Press
MSL
hPa
Rain since
9am
mm
Dir  Spd
km/h
Gust
km/h
Spd
kts
Gust
kts
27/11:30pm 29.0 25.4 5.1 22 12.5 ESE 13 17 7 9 1016.1 1015.1 0.0
27/11:00pm 30.1 25.8 5.4 21 13.0 SE 17 22 9 12 1016.1 1015.1 0.0
27/10:30pm 30.7 26.4 5.2 20 13.5 SE 17 20 9 11 1016.0 1015.0 0.0
27/10:00pm 31.2 27.0 5.6 20 13.6 SE 17 22 9 12 1015.9 1014.9 0.0
27/09:30pm 31.6 27.8 5.9 20 13.8 SE 15 19 8 10 1015.7 1014.7 0.0
27/09:00pm 32.1 28.4 6.3 20 14.0 ESE 15 22 8 12 1015.3 1014.3 0.0
27/08:30pm 32.7 28.2 6.1 19 14.4 SE 19 24 10 13 1014.9 1013.9 0.0
27/08:00pm 33.2 29.5 6.5 19 14.6 ESE 15 20 8 11 1014.7 1013.7 0.0
27/07:30pm 33.7 29.8 6.9 19 14.8 ESE 17 26 9 14 1014.4 1013.4 0.0
27/07:00pm 34.5 29.6 6.7 18 15.3 ESE 22 28 12 15 1014.3 1013.3 0.0
27/06:30pm 34.2 29.2 6.5 18 15.2 SE 22 28 12 15 1014.1 1013.1 0.0
27/06:00pm 34.3 29.5 7.4 19 15.0 ESE 22 39 12 21 1014.2 1013.2 0.0
27/05:30pm 34.9 30.6 7.1 18 15.5 SE 19 28 10 15 1014.2 1013.2 0.0
27/05:00pm 35.2 30.6 8.1 19 15.3 SE 22 39 12 21 1014.2 1013.2 0.0
27/04:30pm 35.6 31.6 8.4 19 15.5 ESE 19 32 10 17 1014.4 1013.4 0.0
27/04:00pm 35.7 31.0 7.7 18 15.8 E 22 33 12 18 1014.6 1013.6 0.0
27/03:30pm 34.5 29.7 7.5 19 15.1 ESE 22 32 12 17 1015.0 1014.0 0.0
27/03:00pm 35.6 31.3 9.2 20 15.2 ESE 22 35 12 19 1015.3 1014.3 0.0
27/02:30pm 35.2 31.2 8.9 20 15.1 E 20 30 11 16 1015.6 1014.6 0.0
27/02:00pm 34.5 30.7 9.0 21 14.6 E 19 37 10 20 1016.2 1015.2 0.0
27/01:30pm 34.1 30.4 9.4 22 14.2 E 19 28 10 15 1016.6 1015.5 0.0
27/01:00pm 33.8 29.6 9.8 23 13.8 ENE 22 33 12 18 1016.8 1015.7 0.0
27/12:30pm 33.0 29.0 10.4 25 13.1 ENE 22 33 12 18 1017.1 1016.0 0.0
27/12:00pm 32.6 28.3 10.6 26 12.8 ENE 24 33 13 18 1017.4 1016.4 0.0
27/11:30am 31.7 27.3 10.4 27 12.3 ENE 24 35 13 19 1017.5 1016.5 0.0
27/11:00am 30.7 25.8 10.1 28 11.8 ENE 26 33 14 18 1017.6 1016.6 0.0
27/10:30am 29.8 25.2 10.9 31 10.9 ENE 26 33 14 18 1017.6 1016.6 0.0
27/10:00am 28.7 23.8 11.3 34 10.0 ENE 28 35 15 19 1017.5 1016.5 0.0
27/09:30am 28.4 23.6 11.5 35 9.8 ENE 28 37 15 20 1017.3 1016.2 0.0
27/09:00am 27.9 22.7 11.5 36 9.5 ENE 30 43 16 23 1017.2 1016.1 0.0
27/08:30am 27.2 21.9 11.3 37 9.1 ENE 30 39 16 21 1016.9 1015.8 0.0
27/08:00am 26.8 22.5 12.1 40 8.5 E 26 33 14 18 1016.3 1015.3 0.0
27/07:30am 26.5 23.6 12.9 43 8.0 E 20 28 11 15 1015.9 1014.9 0.0
27/07:00am 26.3 23.7 13.1 44 7.8 E 19 20 10 11 1015.4 1014.4 0.0
27/06:30am 26.6 23.9 13.0 43 8.0 E 19 24 10 13 1015.0 1014.0 0.0
27/06:00am 27.0 25.3 12.6 41 8.4 E 13 19 7 10 1014.6 1013.6 0.0
27/05:30am 27.9 25.6 13.1 40 8.8 E 17 22 9 12 1014.2 1013.2 0.0
27/05:00am 28.4 25.1 12.7 38 9.3 ENE 22 32 12 17 1013.9 1012.9 0.0
27/04:30am 28.7 25.0 12.6 37 9.5 ENE 24 33 13 18 1013.7 1012.7 0.0
27/04:00am 28.6 25.3 11.6 34 9.9 E 20 26 11 14 1013.6 1012.6 0.0
27/03:30am 28.4 25.4 10.6 33 10.2 E 17 22 9 12 1013.7 1012.7 0.0
27/03:00am 28.9 25.6 9.6 30 10.9 ESE 17 20 9 11 1013.7 1012.7 0.0
27/02:30am 29.1 26.5 9.3 29 11.1 ESE 13 15 7 8 1013.7 1012.7 0.0
27/02:00am 28.3 25.1 7.0 26 11.4 S 13 17 7 9 1013.8 1012.8 0.0
27/01:30am 29.1 25.2 7.1 25 11.9 S 17 20 9 11 1013.7 1012.7 0.0
27/01:00am 29.3 25.3 6.7 24 12.1 S 17 22 9 12 1013.6 1012.6 0.0
27/12:30am 30.0 24.7 6.6 23 12.6 S 24 32 13 17 1013.6 1012.6 0.0
27/12:00am 30.2 25.4 7.4 24 12.4 S 22 28 12 15 1013.5 1012.5 0.0
 
Date/Time
EDT
Temp
°C
App
Temp
°C
Dew
Point
°C
Rel
Hum
%
Delta-T
°C
Wind Press
QNH
hPa
Press
MSL
hPa
Rain since
9am
mm
Dir  Spd
km/h
Gust
km/h
Spd
kts
Gust
kts
26/11:30pm 30.5 26.0 7.0 23 12.8 S 20 28 11 15 1013.6 1012.6 0.0
26/11:00pm 31.0 26.2 7.5 23 12.9 S 22 30 12 16 1013.5 1012.5 0.0
26/10:30pm 31.3 26.2 7.7 23 13.0 S 24 28 13 15 1013.4 1012.4 0.0
26/10:00pm 31.4 27.4 8.4 24 12.8 SSW 19 22 10 12 1013.0 1012.0 0.0
26/09:30pm 32.0 28.5 8.9 24 13.0 S 17 20 9 11 1012.6 1011.6 0.0
26/09:00pm 32.6 29.7 8.1 22 13.7 S 13 15 7 8 1012.1 1011.1 0.0
26/08:30pm 33.4 30.1 8.1 21 14.2 SSE 15 20 8 11 1011.7 1010.7 0.0
26/08:00pm 34.0 29.7 7.1 19 14.9 SE 19 24 10 13 1011.5 1010.4 0.0
26/07:30pm 34.7 30.6 6.1 17 15.6 SE 17 24 9 13 1011.4 1010.3 0.0
26/07:00pm 34.7 31.5 6.9 18 15.4 SE 13 20 7 11 1011.4 1010.3 0.0
26/06:30pm 34.8 31.6 7.0 18 15.4 SE 13 19 7 10 1011.3 1010.2 0.0
26/06:00pm 34.8 31.4 7.8 19 15.2 SE 15 24 8 13 1011.3 1010.2 0.0
26/05:30pm 35.3 32.4 9.7 21 14.8 SSE 15 30 8 16 1011.4 1010.3 0.0
26/05:00pm 34.9 31.5 9.3 21 14.7 ESE 17 30 9 16 1011.5 1010.4 0.0
26/04:30pm 34.9 31.3 10.0 22 14.5 SSE 19 32 10 17 1011.8 1010.8 0.0
26/04:00pm 34.2 29.9 9.4 22 14.3 SSE 22 35 12 19 1012.1 1011.1 0.0
26/03:30pm 34.2 30.3 9.4 22 14.2 SSE 20 28 11 15 1012.5 1011.5 0.0
26/03:00pm 33.9 30.3 10.5 24 13.7 SE 20 28 11 15 1013.0 1012.0 0.0
26/02:30pm 33.5 29.0 10.2 24 13.5 SSE 24 33 13 18 1013.4 1012.4 0.0
26/02:00pm 32.9 28.7 9.7 24 13.3 SE 22 32 12 17 1013.8 1012.8 0.0
26/01:30pm 32.1 28.2 9.6 25 12.8 SSE 20 28 11 15 1014.1 1013.1 0.0
26/01:00pm 31.5 27.7 9.7 26 12.4 S 20 37 11 20 1014.3 1013.3 0.0
26/12:30pm 30.2 26.4 9.1 27 11.8 SSE 19 28 10 15 1014.6 1013.6 0.0
26/12:00pm 29.2 25.3 8.8 28 11.3 SSE 19 24 10 13 1014.8 1013.8 0.0
26/11:30am 27.8 23.9 7.1 27 11.1 SSE 17 26 9 14 1015.3 1014.3 0.0
26/11:00am 26.6 22.6 6.6 28 10.6 SSE 17 22 9 12 1015.4 1014.4 0.0
26/10:30am 25.2 20.4 4.9 27 10.3 SSE 19 26 10 14 1015.6 1014.6 0.0
26/10:00am 24.6 19.7 4.9 28 10.0 SSE 20 28 11 15 1015.6 1014.6 0.0
26/09:30am 22.9 17.1 4.4 30 9.2 SSE 24 30 13 16 1015.8 1014.8 0.0
26/09:00am 21.8 16.7 3.9 31 8.7 S 20 28 11 15 1015.6 1014.6 0.0
26/08:30am 20.4 16.1 3.2 32 8.2 S 15 22 8 12 1015.3 1014.3 0.0
26/08:00am 19.7 14.4 3.0 33 7.9 S 20 26 11 14 1014.7 1013.7 0.0
26/07:30am 19.3 13.6 3.1 34 7.6 S 22 28 12 15 1014.5 1013.5 0.0
26/07:00am 19.5 13.4 2.8 33 7.8 S 24 28 13 15 1014.5 1013.5 0.0
26/06:30am 19.5 13.3 2.4 32 8.0 S 24 30 13 16 1014.4 1013.4 0.0
26/06:00am 19.9 14.1 2.3 31 8.2 SSE 22 28 12 15 1014.5 1013.5 0.0
26/05:30am 20.5 14.3 2.3 30 8.5 SSE 24 32 13 17 1014.4 1013.4 0.0
26/05:00am 21.2 14.7 2.5 29 8.8 SSE 26 33 14 18 1014.2 1013.2 0.0
26/04:30am 21.6 15.4 2.3 28 9.1 SSE 24 30 13 16 1014.0 1013.0 0.0
26/04:00am 21.9 15.8 2.6 28 9.2 SSE 24 32 13 17 1014.0 1013.0 0.0
26/03:30am 22.1 16.3 2.2 27 9.4 SSE 22 28 12 15 1014.1 1013.1 0.0
26/03:00am 22.7 16.9 2.2 26 9.7 SSE 22 28 12 15 1014.3 1013.3 0.0
26/02:30am 23.1 17.2 2.0 25 10.0 SSE 22 26 12 14 1014.4 1013.4 0.0
26/02:00am 23.5 17.6 1.8 24 10.3 SSE 22 28 12 15 1014.6 1013.6 0.0
26/01:30am 24.1 18.1 1.1 22 10.8 SSE 22 28 12 15 1015.0 1014.0 0.0
26/01:00am 24.6 18.6 0.8 21 11.2 S 22 28 12 15 1015.2 1014.2 0.0
26/12:30am 25.1 19.0 0.6 20 11.5 S 22 32 12 17 1015.4 1014.4 0.0
26/12:00am 25.4 19.2 -0.6 18 11.9 S 22 28 12 15 1015.5 1014.5 0.0
 
Date/Time
EDT
Temp
°C
App
Temp
°C
Dew
Point
°C
Rel
Hum
%
Delta-T
°C
Wind Press
QNH
hPa
Press
MSL
hPa
Rain since
9am
mm
Dir  Spd
km/h
Gust
km/h
Spd
kts
Gust
kts
25/11:30pm 25.7 19.9 -0.4 18 12.1 S 20 24 11 13 1015.6 1014.6 0.0
25/11:00pm 26.1 20.2 -0.8 17 12.4 S 20 24 11 13 1015.6 1014.6 0.0
25/10:30pm 26.7 20.9 -1.2 16 12.8 S 19 24 10 13 1015.5 1014.5 0.0
25/10:00pm 27.0 21.7 -0.9 16 12.9 S 17 22 9 12 1015.3 1014.3 0.0
25/09:30pm 27.8 22.4 -1.2 15 13.4 S 17 20 9 11 1015.0 1014.0 0.0
25/09:00pm 28.6 23.2 -1.5 14 13.9 S 17 20 9 11 1014.8 1013.8 0.0
25/08:30pm 29.4 23.7 -0.9 14 14.3 S 19 22 10 12 1014.6 1013.6 0.0
25/08:00pm 30.4 24.1 -1.1 13 14.9 SSE 22 30 12 16 1014.3 1013.3 0.0
25/07:30pm 31.4 24.3 -1.4 12 15.6 S 26 35 14 19 1014.1 1013.1 0.0
25/07:00pm 31.9 24.1 -1.0 12 15.8 S 30 37 16 20 1014.1 1013.1 0.0
25/06:30pm 32.7 25.9 -1.6 11 16.4 S 24 35 13 19 1013.9 1012.9 0.0
25/06:00pm 33.1 26.6 -2.6 10 16.8 SSE 22 35 12 19 1014.1 1013.1 0.0
25/05:30pm 32.8 26.4 -1.5 11 16.4 S 22 33 12 18 1014.1 1013.1 0.0
25/05:00pm 33.4 26.2 -2.3 10 16.9 S 26 35 14 19 1014.3 1013.3 0.0
25/04:30pm 32.9 26.0 -2.7 10 16.7 SSE 24 33 13 18 1014.6 1013.6 0.0
25/04:00pm 33.3 26.6 -1.1 11 16.6 SSE 24 39 13 21 1015.1 1014.1 0.0
25/03:30pm 32.4 25.4 -0.6 12 16.0 S 26 35 14 19 1015.6 1014.6 0.0
25/03:00pm 31.9 25.0 0.1 13 15.5 SSE 26 37 14 20 1016.0 1015.0 0.0
25/02:30pm 31.3 24.1 0.6 14 15.0 S 28 43 15 23 1016.5 1015.4 0.0

Other Formats:

Comma delimited format used in spreadsheet applications
http://www.bom.gov.au/fwo/IDN60801/IDN60801.95699.axf

JavaScript Object Notation format (JSON) in row-major order
http://www.bom.gov.au/fwo/IDN60801/IDN60801.95699.json